Share

Fort Morgan, CO

Fort Morgan (KCOFORTM2) Elev 4327 ft | 40.24 °N, 103.79 °W | Change Station

Current weather conditions updated 0 second ago

Clear
Clear
72.3 °F
Feels Like 74 °F
N
1.6
Wind Variable Wind from SSE
Gusts 5.4 mph
Sunrise 6:12 AM
Sunset 7:37 PM
Moon Waning Gibbous

Today is forecast to be Much Warmer than yesterday.

Pressure 29.97 in
Visibility 10.0 miles
Clouds Clear
Heat Index 74 °F
Dew Point 19 °F
Humidity 13%
Rainfall 0.00 in
Snow Depth Not available.
UV 0.0 out of 16
Pollen 11.60 out of 12
Air Quality Not available.
Flu Activity Sporadic
METAR KFMM 181655Z AUTO 19004KT 10SM CLR 19/01 A2997 RMK AO2 T01940009

More Conditions Fewer Conditions

Pressure 29.97 in
Visibility 10.0 miles
Clouds Clear
Heat Index 74 °F
Dew Point 19 °F
Humidity 13%
Rainfall 0.00 in
Snow Depth Not available.
UV 0.0 out of 16
Pollen 11.60 out of 12
Air Quality Not available.
Flu Activity Sporadic
METAR KFMM 181655Z AUTO 19004KT 10SM CLR 19/01 A2997 RMK AO2 T01940009

More Conditions Fewer Conditions

10-Day Weather Forecast

Almanac

Astronomy

Apr. 18, 2014 Rise Set
Actual Time 6:12 AM MDT 7:37 PM MDT
Civil Twilight 5:44 AM MDT 8:05 PM MDT
Nautical Twilight 5:10 AM MDT 8:39 PM MDT
Astronomical Twilight 4:34 AM MDT 9:15 PM MDT
Moon 11:25 PM MDT 8:36 AM MDT
Length of Visible Light 14h 21m
Length of Day
13h 24m
Tomorrow will be 2m 29s longer.
Waning Gibbous, 87% of the Moon is Illuminated
Today
Waning Gibbous
Apr 22
Last Quarter
Apr 29
New
May 6
First Quarter
May 14
Full

Today's Extremes

State Highs State Lows

Community

  • What's for Lunch?
    What's for Lunch?
  • SUNRISE THROUGH THE TREES.
    SUNRISE THROUGH THE TREES.
  • Dog Wood Blossoms
    Dog Wood Blossoms
  • Morning Light
    Morning Light
  • New Day
    New Day

WunderPhotos

Upload Photos

1,702,423 photos uploaded!

Nearby

Snow Depth

Station Depth Elevation
Niwot 53 in 9910 ft
University Camp 79 in 10300 ft
Wild Basin 58 in 9560 ft
Lake Eldora 44 in 9700 ft
Bear Lake 61 in 9500 ft

Coastal Water Temperatures

Place Temperature
No Stations Reporting

Earthquake Activity

City Distance Mag. Time & Date
No recent earthquake activity has been reported nearby.
Minimum magnitude displayed is 2.5.

Nearby Weather Stations

Station Location Temp. Heat Index Dew Point Humidity Wind Precip. Elev Updated Type
Fort Morgan, Fort Morgan, CO 72.3 °F 74 °F 19 °F 13% SSE  at  1.6 mph 0.00 in / hr 4327 ft 11:16 AM MDT Rapid Fire
1 Mile North - Orchard, CO, Orchard, CO 71.4 °F 76 °F 40 °F 32% SSW  at  7.8 mph - / hr 4449 ft 11:07 AM MDT Normal

Show More Stations Show Fewer Stations

What do you think?

We're not finished. Please let us know what you like, what you don't like, and what you are still missing.